My Meet Scores
Stella Turner, Gymnastics X-Calibur - MyMeetScores.com
Top100 | Top Teams | Upcoming Meets | Completed Meets | Latest | Add Scores | Help| Support | Bookmark and Share

Stella Turner, Gymnastics X-Calibur
Personal Bests
LevelVault BarsBeamFloorAA
XG9.3009.650 9.0509.25037.075
XS9.5259.725 9.5509.67538.400
Meet Scores
Date Meet Team Session Level Division Vault Bars Beam Floor AA
2020-02-21 Kinetic Classic Gymnastics X-Calibur 10 XG Younger 9.300 27T 9.550 29T 8.975 39T 9.250 37 37.075 24T
2020-01-31 LEgacy Elite Classic Gymnastics X-Calibur 5 XG Ch 8.800 4T 9.250 3T 8.100 11 9.200 3 35.350 6
2020-01-24 King Arthur Invitational Gymnastics X-Calibur 11 XG JR A 8.650 14T 9.275 10 9.000 8 9.225 12 36.150 10
2020-01-10 Leenda's Island Adventure Gymnastics X-Calibur GG9 XG 10 & Under 8.700 8 9.650 2 9.050 3 9.075 11 36.475 3
2019-12-07 Home for the Holidays 2019 Gymnastics X-Calibur 5 XG Younger 8.875 8 8.300 10 9.000 2 9.225 3T 35.400 7
2019-11-08 Illinois Judges Cup Gymnastics X-Calibur P6 XG All Ages 8.800 24T 8.700 28T 8.500 22T 9.150 15 35.150 20T
2019-05-03 2019 Region 5 Xcel Championships Gymnastics X-Calibur 10O XS CH C 9.350 5T 9.475 15T 9.400 20T 9.525 3T 37.750 5
2019-04-13 2019 Illinois XB, XS State Championships Gymnastics X-Calibur 4 XS Ch C 9.525 3 9.725 4T 9.475 12T 9.675 1 38.400 2
2019-02-15 Women's Midwest Open Gymnastics X-Calibur 11 XS Junior A 9.400 3 9.100 12T 8.925 10 9.650 2 37.075 8
2019-02-08 Midwest Twisters Harley Meet Womens Gymnastics X-Calibur S10 XS 9 yrs. 8.900 6 9.550 2 9.350 5T 9.600 2 37.400 2
2019-01-25 King Arthur Invitational Gymnastics X-Calibur 17 XS JR A 9.100 3T 9.675 3 9.500 7 9.600 4 37.875 3
2019-01-04 Leenda's Island Adventure Gymnastics X-Calibur P06 XS 9 Year Old 9.000 10T 9.600 6 9.550 3 9.400 3 37.550 2
2018-11-30 Ultimate Wish Classic Gymnastics X-Calibur 7 XS JR 9.425 2 9.700 2 9.425 9 9.625 1 38.175 2
2018-04-26 Xcel Region 5 Championships Gymnastics X-Calibur 5B XS Ch A 9.200 5 9.375 8 9.275 13 9.250 12 37.100 6
2018-04-06 XCEL State Championships Gymnastics X-Calibur 2A XS Ch A 9.350 6T 9.175 19 9.550 4T 9.400 7T 37.475 8T
2018-03-01 Derby Classic 2018 Gymnastics X-Calibur 8A XS Jr A 8.600 6 9.400 10 9.100 6 8.800 9 35.900 7
2018-02-23 Kinetic Classic Gymnastics X-Calibur 5 XS Younger 8.700 56T 9.500 14T 9.525 15T 9.350 29T 37.075 22T
2018-02-03 Midwest Games Gymnastics X-Calibur 2 XS JRA 9.250 2T 9.250 8T 9.400 4 9.250 2T 37.150 2
2018-01-26 King Arthur Invitational Gymnastics X-Calibur 10 XS JRA 9.000 7 9.425 13T 9.225 8 9.175 8 36.825 8T
2018-01-04 Leenda's Island Adventure Gymnastics X-Calibur G07 XS 9 & Under 9.050 9 9.450 11T 9.300 8T 8.300 19 36.100 11
2017-12-01 Ultimate Wish Classic Gymnastics X-Calibur 14 XS JR1 8.650 11T 9.525 7 9.350 5T 9.525 5 37.050 6
Get your scores on
a t-shirt, pin, or hoodie

www.lazysuits.com